Time;durP1;ratioP1;P1;durP2;ratioP2;P2;SDS_P1;SDS_P2;PMS_P1;PMS_P2;Temp;Humidity;BMP_temperature;BMP_pressure;BME280_temperature;BME280_humidity;BME280_pressure;Samples;Min_cycle;Max_cycle;Signal;HPM_P1;HPM_P2
2023/07/02 00:01:16;;;;;;;5.47;4.60;;;;;;;21.12;100.00;97460.25;5009739;28;20198;-57
2023/07/02 00:03:41;;;;;;;7.22;4.43;;;;;;;21.09;100.00;97441.41;5010021;28;20190;-57
2023/07/02 00:06:07;;;;;;;6.90;4.82;;;;;;;20.96;100.00;97425.53;5009733;28;20693;-57
2023/07/02 00:08:32;;;;;;;7.82;5.57;;;;;;;20.98;100.00;97421.72;5009666;28;20217;-57
2023/07/02 00:10:58;;;;;;;6.18;4.95;;;;;;;21.30;100.00;97462.38;5012084;28;20273;-57
2023/07/02 00:13:23;;;;;;;7.65;4.47;;;;;;;21.07;100.00;97443.41;5013428;28;20236;-57
2023/07/02 00:15:49;;;;;;;5.82;3.88;;;;;;;21.27;100.00;97447.78;5012313;28;20684;-57
2023/07/02 00:18:17;;;;;;;5.68;4.70;;;;;;;21.32;100.00;97437.47;4993623;28;20207;-57
2023/07/02 00:20:43;;;;;;;5.53;4.30;;;;;;;21.38;100.00;97444.59;4993643;28;20206;-57
2023/07/02 00:23:09;;;;;;;7.15;4.63;;;;;;;21.39;100.00;97440.16;5024246;28;20583;-57
2023/07/02 00:25:38;;;;;;;5.72;4.53;;;;;;;21.30;100.00;97439.50;5034986;28;20189;-57
2023/07/02 00:28:04;;;;;;;6.93;5.10;;;;;;;21.12;100.00;97447.09;5035305;28;20188;-57
2023/07/02 00:30:29;;;;;;;7.55;5.03;;;;;;;21.12;100.00;97451.53;5035258;28;20174;-57
2023/07/02 00:32:55;;;;;;;5.68;4.63;;;;;;;21.22;100.00;97479.13;5035242;28;20174;-57
2023/07/02 00:35:21;;;;;;;5.95;4.45;;;;;;;21.01;100.00;97475.75;5035071;28;20192;-57
2023/07/02 00:37:47;;;;;;;5.90;4.20;;;;;;;20.97;100.00;97471.91;5034852;28;20561;-57
2023/07/02 00:40:13;;;;;;;7.18;4.35;;;;;;;21.02;100.00;97482.63;5034991;28;20169;-57
2023/07/02 00:42:38;;;;;;;7.22;4.53;;;;;;;21.08;100.00;97472.16;5034747;28;20714;-57
2023/07/02 00:45:04;;;;;;;7.05;5.05;;;;;;;21.06;100.00;97449.69;5034940;28;20623;-57
2023/07/02 00:47:34;;;;;;;6.50;5.10;;;;;;;21.13;100.00;97459.25;5035146;28;20217;-57
2023/07/02 00:50:01;;;;;;;7.15;4.75;;;;;;;20.98;100.00;97439.31;5034984;28;20264;-57
2023/07/02 00:52:27;;;;;;;6.85;5.20;;;;;;;20.93;100.00;97437.25;5034870;28;20177;-57
2023/07/02 00:54:52;;;;;;;8.25;5.25;;;;;;;20.71;100.00;97435.69;5034768;28;20601;-57
2023/07/02 00:57:18;;;;;;;5.65;4.82;;;;;;;20.96;100.00;97457.91;5034772;28;20182;-57
2023/07/02 00:59:43;;;;;;;6.13;4.60;;;;;;;20.86;100.00;97438.22;5034696;28;20173;-57
2023/07/02 01:02:10;;;;;;;6.25;5.10;;;;;;;20.73;100.00;97417.88;5034616;28;20193;-57
2023/07/02 01:04:36;;;;;;;8.60;5.03;;;;;;;20.63;100.00;97406.09;5034614;28;20174;-57
2023/07/02 01:07:08;;;;;;;6.15;4.85;;;;;;;20.56;100.00;97411.28;5034634;28;20182;-57
2023/07/02 01:09:34;;;;;;;7.53;4.45;;;;;;;20.53;100.00;97413.50;5034808;28;20526;-57
2023/07/02 01:12:03;;;;;;;8.02;4.78;;;;;;;20.60;100.00;97432.75;5051934;28;20200;-56
2023/07/02 01:14:33;;;;;;;6.05;4.80;;;;;;;20.72;100.00;97437.31;5051756;28;20193;-57
2023/07/02 01:17:00;;;;;;;6.75;4.95;;;;;;;20.56;100.00;97416.56;5051925;28;20193;-57
2023/07/02 01:19:41;;;;;;;6.95;4.95;;;;;;;20.71;100.00;97443.56;5051748;28;20410;-57
2023/07/02 01:22:08;;;;;;;8.02;5.63;;;;;;;20.67;100.00;97415.19;5051199;28;20777;-57
2023/07/02 01:24:33;;;;;;;8.52;4.90;;;;;;;20.64;100.00;97410.34;5051768;28;20182;-57
2023/07/02 01:27:01;;;;;;;5.28;4.63;;;;;;;20.69;100.00;97429.00;5051715;28;20674;-57
2023/07/02 01:29:29;;;;;;;8.30;5.88;;;;;;;20.49;100.00;97401.72;5051668;28;20200;-57
2023/07/02 01:31:55;;;;;;;10.02;5.80;;;;;;;20.68;100.00;97437.88;5051694;28;20192;-57
2023/07/02 01:34:20;;;;;;;10.52;4.80;;;;;;;20.71;100.00;97437.50;5051815;28;20204;-57
2023/07/02 01:36:46;;;;;;;8.38;4.85;;;;;;;20.73;100.00;97435.47;5051548;28;20193;-57
2023/07/02 01:39:11;;;;;;;6.80;5.80;;;;;;;20.70;100.00;97422.72;5051535;28;20184;-57
2023/07/02 01:41:50;;;;;;;6.70;4.95;;;;;;;20.78;100.00;97428.66;5051426;28;20196;-57
2023/07/02 01:44:16;;;;;;;8.13;5.07;;;;;;;20.83;100.00;97436.78;5051529;28;20250;-57
2023/07/02 01:46:41;;;;;;;6.03;4.65;;;;;;;20.77;100.00;97439.34;5051235;28;20243;-57
2023/07/02 01:49:07;;;;;;;6.15;5.07;;;;;;;20.73;100.00;97423.16;5051356;28;20184;-57
2023/07/02 01:51:33;;;;;;;7.25;4.97;;;;;;;20.86;100.00;97425.06;5034056;28;20637;-57
2023/07/02 01:53:59;;;;;;;6.90;5.28;;;;;;;20.74;100.00;97406.38;5033677;28;20172;-57
2023/07/02 01:56:24;;;;;;;5.93;5.03;;;;;;;20.66;100.00;97395.19;5033720;28;20173;-57
2023/07/02 01:58:50;;;;;;;6.32;5.28;;;;;;;20.64;100.00;97397.19;5033577;28;20228;-57
2023/07/02 02:01:15;;;;;;;10.90;5.20;;;;;;;20.75;100.00;97420.34;5033500;28;20260;-57
2023/07/02 02:03:41;;;;;;;8.00;4.80;;;;;;;20.83;100.00;97426.25;5033524;28;20655;-57
2023/07/02 02:06:06;;;;;;;6.63;4.82;;;;;;;20.85;100.00;97423.41;5033688;28;20182;-57
2023/07/02 02:08:31;;;;;;;7.55;4.55;;;;;;;20.69;100.00;97387.72;5033706;28;20169;-59
2023/07/02 02:10:57;;;;;;;6.55;4.60;;;;;;;20.59;100.00;97397.78;5033686;28;20604;-57
2023/07/02 02:13:22;;;;;;;7.78;4.85;;;;;;;20.86;100.00;97425.06;5033324;28;20174;-57
2023/07/02 02:15:47;;;;;;;6.35;5.05;;;;;;;20.80;100.00;97413.47;5033599;28;20181;-57
2023/07/02 02:18:13;;;;;;;7.22;5.00;;;;;;;20.87;100.00;97421.41;5032985;28;20265;-57
2023/07/02 02:20:39;;;;;;;7.45;5.32;;;;;;;20.82;100.00;97423.81;5032815;28;20193;-57
2023/07/02 02:23:04;;;;;;;8.13;5.97;;;;;;;20.72;100.00;97411.00;5033192;28;20178;-57
2023/07/02 02:25:30;;;;;;;7.85;5.30;;;;;;;20.69;100.00;97402.69;5033118;28;20182;-57
2023/07/02 02:27:55;;;;;;;9.70;4.97;;;;;;;20.68;100.00;97419.47;5033069;28;20223;-57
2023/07/02 02:30:20;;;;;;;8.45;5.00;;;;;;;20.58;100.00;97413.75;5033333;28;20311;-57
2023/07/02 02:32:46;;;;;;;8.63;5.28;;;;;;;20.43;100.00;97407.75;5032698;28;20177;-57
2023/07/02 02:35:11;;;;;;;12.50;5.03;;;;;;;20.41;100.00;97401.88;5032335;28;20261;-57
2023/07/02 02:37:39;;;;;;;7.53;5.13;;;;;;;20.34;100.00;97396.56;5030402;28;20182;-57
2023/07/02 02:40:07;;;;;;;6.72;4.85;;;;;;;20.48;100.00;97400.09;5030432;28;20190;-57
2023/07/02 02:42:32;;;;;;;8.10;5.47;;;;;;;20.55;100.00;97411.47;5030472;28;20201;-57
2023/07/02 02:44:57;;;;;;;6.82;4.85;;;;;;;20.50;100.00;97406.81;5030438;28;20190;-57
2023/07/02 02:47:23;;;;;;;9.55;5.05;;;;;;;20.27;100.00;97387.81;5029741;28;20773;-57
2023/07/02 02:49:48;;;;;;;8.27;5.53;;;;;;;20.47;100.00;97422.97;5030263;28;20189;-57
2023/07/02 02:52:15;;;;;;;6.30;4.47;;;;;;;20.40;100.00;97424.72;5030233;28;20189;-57
2023/07/02 02:54:40;;;;;;;9.38;5.25;;;;;;;20.43;100.00;97421.72;5030132;28;20245;-57
2023/07/02 02:57:06;;;;;;;9.07;5.57;;;;;;;20.29;100.00;97406.03;5030176;28;20189;-57
2023/07/02 02:59:31;;;;;;;6.30;4.95;;;;;;;20.31;100.00;97401.38;5030224;28;20581;-57
2023/07/02 03:01:57;;;;;;;7.57;4.88;;;;;;;20.40;100.00;97416.03;5030060;28;20209;-57
2023/07/02 03:04:23;;;;;;;8.80;4.82;;;;;;;20.56;100.00;97431.50;5030062;28;20188;-57
2023/07/02 03:06:49;;;;;;;7.15;4.90;;;;;;;20.59;100.00;97433.75;5030039;28;20268;-57
2023/07/02 03:09:15;;;;;;;9.60;5.43;;;;;;;20.60;100.00;97438.84;5045305;28;20272;-57
2023/07/02 03:11:40;;;;;;;6.70;4.82;;;;;;;20.54;100.00;97431.72;5049908;28;20185;-57
2023/07/02 03:14:05;;;;;;;8.48;5.50;;;;;;;20.59;100.00;97447.72;5049868;28;20647;-57
2023/07/02 03:16:31;;;;;;;8.82;5.50;;;;;;;20.28;100.00;97431.47;5050127;28;20197;-57
2023/07/02 03:18:56;;;;;;;7.15;5.15;;;;;;;20.46;100.00;97457.31;5049870;28;20185;-57
2023/07/02 03:21:22;;;;;;;8.27;5.50;;;;;;;20.47;100.00;97472.06;5036495;28;20684;-57
2023/07/02 03:23:47;;;;;;;7.80;5.00;;;;;;;20.52;100.00;97469.69;5032234;28;20525;-57
2023/07/02 03:26:12;;;;;;;8.93;6.35;;;;;;;20.48;100.00;97436.91;5032214;28;20178;-57
2023/07/02 03:28:38;;;;;;;10.68;5.70;;;;;;;20.64;100.00;97473.44;5032257;28;20170;-57
2023/07/02 03:31:03;;;;;;;7.85;5.38;;;;;;;20.45;100.00;97445.97;5032173;28;20186;-57
2023/07/02 03:33:28;;;;;;;7.85;5.43;;;;;;;20.35;100.00;97444.69;5032134;28;20169;-57
2023/07/02 03:35:54;;;;;;;6.60;5.13;;;;;;;20.48;100.00;97478.94;5032164;28;20256;-57
2023/07/02 03:38:19;;;;;;;8.75;5.55;;;;;;;20.41;100.00;97465.75;5031806;28;20227;-57
2023/07/02 03:40:45;;;;;;;8.70;5.03;;;;;;;20.48;100.00;97465.81;5029279;28;20221;-57
2023/07/02 03:43:10;;;;;;;8.07;5.15;;;;;;;20.72;100.00;97496.94;5049308;28;20285;-57
2023/07/02 03:45:35;;;;;;;8.48;5.10;;;;;;;20.70;100.00;97504.22;5051794;28;20210;-57
2023/07/02 03:48:01;;;;;;;10.15;5.35;;;;;;;20.82;100.00;97497.44;5052916;28;20363;-57
2023/07/02 03:50:26;;;;;;;9.05;5.90;;;;;;;20.79;100.00;97477.59;5053547;28;20672;-57
2023/07/02 03:52:52;;;;;;;11.50;5.88;;;;;;;20.85;100.00;97465.50;5053514;28;20699;-57
2023/07/02 03:55:17;;;;;;;10.43;5.25;;;;;;;20.82;100.00;97474.59;5053516;28;20188;-57
2023/07/02 03:57:42;;;;;;;9.73;5.80;;;;;;;20.72;100.00;97475.91;5053404;28;20189;-57
2023/07/02 04:00:10;;;;;;;10.23;5.32;;;;;;;20.65;100.00;97475.88;5053351;28;20215;-57
2023/07/02 04:02:35;;;;;;;12.52;5.80;;;;;;;20.64;100.00;97491.84;5053423;28;20218;-58
2023/07/02 04:05:02;;;;;;;8.80;5.55;;;;;;;20.58;100.00;97482.88;5053309;28;20667;-57
2023/07/02 04:07:27;;;;;;;8.45;5.00;;;;;;;20.61;100.00;97497.47;5053242;28;20193;-57
2023/07/02 04:09:53;;;;;;;13.27;5.25;;;;;;;20.77;100.00;97494.56;5053130;28;20563;-57
2023/07/02 04:12:18;;;;;;;9.90;5.97;;;;;;;20.71;100.00;97495.31;5053241;28;20679;-57
2023/07/02 04:14:44;;;;;;;7.75;5.03;;;;;;;20.51;100.00;97481.22;5040169;28;20182;-57
2023/07/02 04:17:09;;;;;;;9.38;5.60;;;;;;;20.70;100.00;97499.75;5035549;28;20273;-57
2023/07/02 04:19:34;;;;;;;9.50;5.38;;;;;;;20.62;100.00;97483.31;5035231;28;20671;-57
2023/07/02 04:22:00;;;;;;;7.63;5.82;;;;;;;20.79;100.00;97497.81;5035045;28;20193;-57
2023/07/02 04:24:26;;;;;;;9.30;5.55;;;;;;;20.70;100.00;97477.94;5035715;28;20227;-57
2023/07/02 04:26:52;;;;;;;10.18;5.93;;;;;;;20.85;100.00;97489.97;5035293;28;20182;-57
2023/07/02 04:29:18;;;;;;;9.82;5.10;;;;;;;20.95;100.00;97498.38;5035255;28;20186;-57
2023/07/02 04:31:43;;;;;;;8.45;5.47;;;;;;;20.84;100.00;97475.22;5034971;28;20235;-57
2023/07/02 04:34:09;;;;;;;9.05;5.07;;;;;;;20.93;100.00;97496.94;5035242;28;20184;-57
2023/07/02 04:36:34;;;;;;;9.13;4.90;;;;;;;20.82;100.00;97486.91;5035190;28;20235;-57
2023/07/02 04:38:59;;;;;;;8.40;4.70;;;;;;;21.03;100.00;97510.59;5035115;28;20192;-57
2023/07/02 04:41:26;;;;;;;9.73;5.47;;;;;;;20.87;100.00;97509.00;5034750;28;20202;-57
2023/07/02 04:43:52;;;;;;;8.32;5.65;;;;;;;21.02;100.00;97519.47;5034963;28;20240;-57
2023/07/02 04:46:17;;;;;;;7.00;5.63;;;;;;;21.04;100.00;97501.69;5034164;28;20266;-57
2023/07/02 04:48:43;;;;;;;7.32;5.35;;;;;;;21.19;100.00;97510.25;5034980;28;20173;-57
2023/07/02 04:51:08;;;;;;;9.35;5.10;;;;;;;21.33;100.00;97520.69;5052324;28;20212;-57
2023/07/02 04:53:34;;;;;;;7.28;5.68;;;;;;;21.41;100.00;97502.13;5052155;28;20229;-57
2023/07/02 04:56:00;;;;;;;8.60;5.82;;;;;;;21.52;100.00;97500.75;5051863;28;20683;-58
2023/07/02 04:58:27;;;;;;;9.00;5.55;;;;;;;21.60;100.00;97516.38;5051763;28;20177;-57
2023/07/02 05:00:52;;;;;;;7.07;5.57;;;;;;;21.51;100.00;97513.09;5052142;28;20213;-57
2023/07/02 05:03:17;;;;;;;7.55;5.00;;;;;;;21.34;100.00;97503.88;5052205;28;20181;-57
2023/07/02 05:05:43;;;;;;;7.28;5.22;;;;;;;21.06;100.00;97505.75;5052129;28;20196;-57
2023/07/02 05:08:08;;;;;;;6.72;5.63;;;;;;;20.88;100.00;97512.44;5052173;28;20178;-57
2023/07/02 05:10:34;;;;;;;7.10;5.60;;;;;;;20.56;100.00;97497.22;5052080;28;20199;-57
2023/07/02 05:12:59;;;;;;;8.00;5.63;;;;;;;20.34;100.00;97503.50;5052054;28;20192;-57
2023/07/02 05:15:26;;;;;;;7.00;5.88;;;;;;;20.39;100.00;97509.00;5052018;28;20180;-57
2023/07/02 05:17:51;;;;;;;8.70;6.05;;;;;;;20.23;100.00;97486.41;5051841;28;20718;-57
2023/07/02 05:20:16;;;;;;;6.50;5.30;;;;;;;20.34;100.00;97517.44;5051823;28;20275;-57
2023/07/02 05:22:42;;;;;;;7.18;5.43;;;;;;;20.18;100.00;97507.19;5037229;28;20193;-57
2023/07/02 05:25:08;;;;;;;9.30;6.20;;;;;;;20.07;100.00;97512.94;5033434;28;20193;-57
2023/07/02 05:27:33;;;;;;;9.70;5.47;;;;;;;20.14;100.00;97524.31;5033931;28;20640;-58
2023/07/02 05:29:58;;;;;;;7.65;5.15;;;;;;;20.07;100.00;97502.41;5033844;28;20597;-57
2023/07/02 05:32:24;;;;;;;7.70;5.60;;;;;;;20.18;100.00;97494.06;5033939;28;20248;-57
2023/07/02 05:34:49;;;;;;;10.77;5.72;;;;;;;20.35;100.00;97497.22;5034059;28;20178;-57
2023/07/02 05:37:15;;;;;;;9.65;5.45;;;;;;;20.53;100.00;97508.94;5033763;28;20172;-57
2023/07/02 05:39:40;;;;;;;6.90;5.40;;;;;;;20.72;100.00;97524.06;5033993;28;20215;-57
2023/07/02 05:42:06;;;;;;;8.23;5.55;;;;;;;20.69;100.00;97534.16;5033578;28;20275;-57
2023/07/02 05:44:31;;;;;;;7.00;5.35;;;;;;;20.83;100.00;97541.97;5034219;28;20178;-57
2023/07/02 05:46:56;;;;;;;10.10;5.25;;;;;;;20.99;100.00;97548.78;5033272;28;20356;-57
2023/07/02 05:49:22;;;;;;;8.20;5.80;;;;;;;21.22;100.00;97558.06;5031284;28;20182;-57
2023/07/02 05:51:48;;;;;;;7.82;6.25;;;;;;;21.39;100.00;97554.13;5031430;28;20193;-57
2023/07/02 05:54:13;;;;;;;10.05;7.43;;;;;;;21.65;100.00;97574.53;5031356;28;20190;-57
2023/07/02 05:56:38;;;;;;;13.63;7.82;;;;;;;21.78;100.00;97572.00;5031329;28;20557;-57
2023/07/02 05:59:04;;;;;;;12.40;9.00;;;;;;;22.00;100.00;97578.78;5031552;28;20257;-57
2023/07/02 06:01:29;;;;;;;13.45;9.63;;;;;;;22.12;100.00;97582.47;5031104;28;20209;-57
2023/07/02 06:03:55;;;;;;;15.30;10.15;;;;;;;22.22;100.00;97572.38;5031464;28;20185;-57
2023/07/02 06:06:25;;;;;;;15.50;10.60;;;;;;;22.38;100.00;97582.59;5011165;28;20203;-57
2023/07/02 06:08:51;;;;;;;14.43;9.60;;;;;;;22.36;100.00;97584.59;5011189;28;20194;-57
2023/07/02 06:11:17;;;;;;;20.58;10.35;;;;;;;22.50;100.00;97578.38;5011216;28;20195;-57
2023/07/02 06:13:42;;;;;;;13.73;10.82;;;;;;;22.51;100.00;97566.81;5011275;28;20191;-57
2023/07/02 06:16:13;;;;;;;19.70;10.77;;;;;;;22.66;100.00;97572.75;5011266;28;20676;-57
2023/07/02 06:18:43;;;;;;;15.73;10.50;;;;;;;22.75;100.00;97568.88;5011167;28;20616;-57
2023/07/02 06:21:08;;;;;;;14.95;9.50;;;;;;;22.73;100.00;97555.09;5011002;28;20209;-57
2023/07/02 06:23:44;;;;;;;14.85;9.68;;;;;;;22.94;100.00;97578.63;5011111;28;20194;-57
2023/07/02 06:26:10;;;;;;;16.08;9.40;;;;;;;23.03;100.00;97580.91;5015699;28;20189;-57
2023/07/02 06:28:35;;;;;;;16.00;9.15;;;;;;;23.05;100.00;97567.47;5031030;28;20190;-57
2023/07/02 06:31:01;;;;;;;18.55;10.48;;;;;;;23.08;100.00;97565.25;5030707;28;20182;-57
2023/07/02 06:33:26;;;;;;;13.65;8.90;;;;;;;23.17;100.00;97582.53;5030657;28;20304;-57
2023/07/02 06:35:51;;;;;;;15.85;10.00;;;;;;;23.08;100.00;97565.25;5030855;28;20212;-57
2023/07/02 06:38:17;;;;;;;16.23;10.13;;;;;;;23.07;100.00;97557.56;5032317;28;20248;-57
2023/07/02 06:40:42;;;;;;;15.10;9.55;;;;;;;23.10;100.00;97562.41;5032778;28;20201;-57
2023/07/02 06:43:08;;;;;;;15.40;8.98;;;;;;;23.01;100.00;97553.09;5032894;28;20177;-57
2023/07/02 06:45:33;;;;;;;12.10;8.77;;;;;;;22.96;100.00;97560.78;5032760;28;20169;-57
2023/07/02 06:48:04;;;;;;;12.93;8.60;;;;;;;22.87;100.00;97535.63;5031825;28;20229;-57
2023/07/02 06:50:30;;;;;;;14.52;9.05;;;;;;;22.95;100.00;97538.06;5032631;28;20567;-57
2023/07/02 06:52:55;;;;;;;13.40;8.70;;;;;;;23.22;100.00;97544.97;5032390;28;20170;-57
2023/07/02 06:55:21;;;;;;;14.75;8.90;;;;;;;23.26;100.00;97546.19;5032612;28;20178;-57
2023/07/02 06:57:47;;;;;;;11.52;7.85;;;;;;;23.25;100.00;97542.72;5032620;28;20173;-57
2023/07/02 07:00:13;;;;;;;12.85;9.55;;;;;;;23.22;100.00;97529.13;5032257;28;20667;-57
2023/07/02 07:02:39;;;;;;;14.65;7.80;;;;;;;23.31;100.00;97543.75;5032356;28;20233;-57
2023/07/02 07:05:05;;;;;;;13.43;7.82;;;;;;;23.08;100.00;97540.69;5032511;28;20224;-57
2023/07/02 07:07:32;;;;;;;9.93;8.00;;;;;;;22.97;100.00;97520.19;5032405;28;20178;-57
2023/07/02 07:09:57;;;;;;;15.63;8.60;;;;;;;23.20;100.00;97536.44;5032650;28;20182;-57
2023/07/02 07:12:23;;;;;;;8.30;7.13;;;;;;;23.34;100.00;97527.47;5032391;28;20176;-57
2023/07/02 07:14:48;;;;;;;9.23;7.32;;;;;;;23.58;100.00;97534.75;5032400;28;20779;-57
2023/07/02 07:17:13;;;;;;;12.75;6.65;;;;;;;23.91;100.00;97540.75;5032137;28;20177;-57
2023/07/02 07:19:39;;;;;;;12.38;7.93;;;;;;;24.14;100.00;97537.41;5031747;28;20205;-57
2023/07/02 07:22:04;;;;;;;10.82;7.28;;;;;;;24.36;100.00;97549.28;5032249;28;20190;-57
2023/07/02 07:24:29;;;;;;;11.20;7.70;;;;;;;24.41;100.00;97548.66;5032197;28;20177;-57
2023/07/02 07:26:55;;;;;;;15.18;8.43;;;;;;;24.64;100.00;97549.75;5032259;28;20637;-57
2023/07/02 07:29:22;;;;;;;12.13;9.13;;;;;;;24.72;100.00;97544.19;5031877;28;20228;-57
2023/07/02 07:31:47;;;;;;;12.60;8.40;;;;;;;24.82;100.00;97555.13;5032398;28;20191;-57
2023/07/02 07:34:12;;;;;;;13.18;8.27;;;;;;;25.04;97.78;97553.75;5031833;28;20174;-57
2023/07/02 07:36:38;;;;;;;11.90;7.97;;;;;;;25.05;97.48;97531.53;5032134;28;20177;-57
2023/07/02 07:39:03;;;;;;;14.13;8.65;;;;;;;25.35;95.86;97548.38;5032058;28;20188;-57
2023/07/02 07:41:29;;;;;;;13.63;8.50;;;;;;;25.46;94.43;97557.44;5031913;28;20201;-57
2023/07/02 07:43:54;;;;;;;15.30;9.82;;;;;;;25.41;94.69;97544.88;5032089;28;20174;-57
2023/07/02 07:46:20;;;;;;;12.15;8.40;;;;;;;25.41;95.96;97547.50;5031072;28;20170;-57
2023/07/02 07:48:45;;;;;;;15.35;8.07;;;;;;;25.36;96.66;97523.50;5032092;28;20668;-57
2023/07/02 07:51:11;;;;;;;13.60;8.43;;;;;;;25.49;94.13;97543.78;5031990;28;20189;-58
2023/07/02 07:53:39;;;;;;;9.20;7.07;;;;;;;25.35;93.10;97527.19;5032009;28;20189;-57
2023/07/02 07:56:05;;;;;;;12.70;7.32;;;;;;;25.60;92.47;97538.53;5029501;28;20194;-57
2023/07/02 07:58:32;;;;;;;10.10;7.55;;;;;;;25.75;90.59;97548.78;5029544;28;20562;-57
2023/07/02 08:00:57;;;;;;;13.75;7.57;;;;;;;25.89;89.16;97548.41;5029480;28;20217;-58
2023/07/02 08:03:23;;;;;;;15.40;7.70;;;;;;;25.99;89.56;97537.31;5029606;28;20174;-58
2023/07/02 08:05:48;;;;;;;11.40;8.20;;;;;;;26.01;87.19;97548.50;5049294;28;20659;-58
2023/07/02 08:08:14;;;;;;;9.40;7.25;;;;;;;26.13;86.98;97546.72;5049380;28;20567;-58
2023/07/02 08:10:39;;;;;;;8.52;6.70;;;;;;;26.11;85.73;97524.91;5049363;28;20257;-58
2023/07/02 08:13:05;;;;;;;10.85;7.65;;;;;;;26.20;83.82;97548.28;5049396;28;20184;-57
2023/07/02 08:15:30;;;;;;;10.25;7.60;;;;;;;26.10;83.77;97531.25;5049529;28;20228;-57
2023/07/02 08:17:58;;;;;;;11.18;7.78;;;;;;;26.06;83.85;97540.72;5049250;28;20185;-57
2023/07/02 08:20:24;;;;;;;10.63;8.07;;;;;;;26.12;83.58;97551.22;5049109;28;20228;-57
2023/07/02 08:22:51;;;;;;;11.40;6.95;;;;;;;25.98;80.65;97536.50;5049145;28;20240;-57
2023/07/02 08:25:17;;;;;;;9.82;7.07;;;;;;;26.16;78.98;97552.41;5049223;28;20246;-57
2023/07/02 08:27:43;;;;;;;11.43;6.88;;;;;;;26.17;79.08;97535.44;5049171;28;20280;-58
2023/07/02 08:30:08;;;;;;;8.80;6.88;;;;;;;26.42;76.42;97549.38;5049227;28;20261;-57
2023/07/02 08:32:34;;;;;;;10.00;6.60;;;;;;;26.55;76.03;97551.91;5052455;28;20642;-58
2023/07/02 08:34:59;;;;;;;15.23;7.55;;;;;;;26.60;76.99;97549.34;5052719;28;20698;-57
2023/07/02 08:37:24;;;;;;;9.10;7.35;;;;;;;26.51;77.73;97521.50;5039184;28;20660;-58
2023/07/02 08:39:50;;;;;;;8.32;6.50;;;;;;;26.57;75.71;97523.28;5035421;28;20180;-58
2023/07/02 08:42:16;;;;;;;9.15;7.00;;;;;;;26.77;74.56;97539.69;5034783;28;20196;-58
2023/07/02 08:44:45;;;;;;;10.45;6.78;;;;;;;26.98;74.08;97549.78;5034817;28;20174;-57
2023/07/02 08:47:11;;;;;;;10.02;6.80;;;;;;;27.05;74.33;97542.53;5034126;28;20700;-57
2023/07/02 08:49:36;;;;;;;8.60;6.90;;;;;;;26.97;72.82;97534.09;5034721;28;20189;-57
2023/07/02 08:52:02;;;;;;;10.65;7.53;;;;;;;27.03;73.88;97534.00;5034927;28;20181;-57
2023/07/02 08:54:27;;;;;;;9.07;7.25;;;;;;;27.09;74.94;97529.59;5032382;28;20189;-57
2023/07/02 08:56:52;;;;;;;12.38;8.15;;;;;;;27.20;73.48;97542.94;5032456;28;20699;-57
2023/07/02 08:59:18;;;;;;;15.07;10.10;;;;;;;27.22;71.98;97546.16;5032454;28;20694;-57
2023/07/02 09:01:48;;;;;;;11.43;8.48;;;;;;;27.18;73.42;97547.63;5032322;28;20263;-57
2023/07/02 09:04:17;;;;;;;14.13;9.38;;;;;;;27.23;73.48;97539.00;5032611;28;20193;-57
2023/07/02 09:06:43;;;;;;;15.73;7.57;;;;;;;27.14;72.55;97543.81;5032273;28;20186;-57
2023/07/02 09:09:09;;;;;;;12.35;8.05;;;;;;;27.26;72.76;97522.59;5032204;28;20224;-57
2023/07/02 09:11:35;;;;;;;10.75;6.35;;;;;;;27.45;71.80;97526.72;5032227;28;20190;-57
2023/07/02 09:14:00;;;;;;;9.85;6.13;;;;;;;27.67;70.01;97539.19;5032129;28;20193;-57
2023/07/02 09:16:31;;;;;;;13.38;6.93;;;;;;;27.63;69.75;97522.09;5032168;28;20192;-57
2023/07/02 09:19:03;;;;;;;11.95;6.95;;;;;;;27.72;68.02;97544.63;5031930;28;20192;-57
2023/07/02 09:21:45;;;;;;;11.63;7.75;;;;;;;27.71;68.76;97547.50;5051730;28;20267;-57
2023/07/02 09:24:17;;;;;;;12.82;7.30;;;;;;;27.60;70.50;97540.38;5051830;28;20189;-58
2023/07/02 09:26:49;;;;;;;9.43;7.30;;;;;;;27.21;69.97;97533.09;5051793;28;20813;-57
2023/07/02 09:29:18;;;;;;;12.18;7.10;;;;;;;27.24;71.07;97537.97;5051716;28;20178;-57
2023/07/02 09:31:47;;;;;;;8.38;6.03;;;;;;;27.25;71.35;97547.53;5051633;28;20188;-57
2023/07/02 09:34:13;;;;;;;8.57;6.53;;;;;;;27.06;70.94;97527.41;5051684;28;20263;-56
2023/07/02 09:36:42;;;;;;;9.48;6.63;;;;;;;27.20;69.80;97542.09;5051708;28;20213;-57
2023/07/02 09:39:12;;;;;;;12.07;8.20;;;;;;;27.15;72.11;97547.25;5031470;28;20186;-57
2023/07/02 09:41:40;;;;;;;10.05;7.38;;;;;;;27.14;71.71;97540.34;5011647;28;20305;-58
2023/07/02 09:44:07;;;;;;;11.85;7.47;;;;;;;27.16;69.62;97549.72;5011596;28;20191;-58
2023/07/02 09:46:36;;;;;;;9.10;6.57;;;;;;;27.37;70.23;97543.84;4955730;28;20267;-59
2023/07/02 09:49:02;;;;;;;7.43;5.65;;;;;;;27.44;67.90;97515.31;4972774;28;20207;-57
2023/07/02 09:51:28;;;;;;;9.40;5.80;;;;;;;27.68;66.29;97538.16;4972645;28;20204;-57
2023/07/02 09:53:54;;;;;;;7.97;5.72;;;;;;;27.84;65.19;97541.97;4972601;28;20637;-57
2023/07/02 09:56:21;;;;;;;7.20;5.65;;;;;;;27.90;62.50;97552.50;4972562;28;20250;-57
2023/07/02 09:58:47;;;;;;;9.75;6.07;;;;;;;27.64;64.81;97554.81;4963887;28;20200;-57
2023/07/02 10:01:12;;;;;;;6.90;5.68;;;;;;;27.62;63.04;97555.03;4953145;28;20250;-56
2023/07/02 10:03:37;;;;;;;8.07;5.18;;;;;;;27.65;66.40;97548.44;4952990;29;20192;-57
2023/07/02 10:06:07;;;;;;;8.82;6.93;;;;;;;27.55;67.26;97526.97;4953327;29;20581;-57
2023/07/02 10:08:33;;;;;;;8.77;6.43;;;;;;;27.74;65.20;97552.34;4953072;29;20295;-57
2023/07/02 10:11:12;;;;;;;8.05;5.63;;;;;;;27.58;64.92;97548.56;5005581;28;20218;-57
2023/07/02 10:13:39;;;;;;;8.95;6.72;;;;;;;27.65;66.56;97527.97;4972065;28;20710;-57
2023/07/02 10:16:06;;;;;;;7.90;5.88;;;;;;;27.79;66.66;97550.66;4972127;28;20188;-57
2023/07/02 10:18:32;;;;;;;6.75;5.72;;;;;;;27.90;68.59;97536.53;4972147;28;20195;-57
2023/07/02 10:20:57;;;;;;;7.07;4.95;;;;;;;27.78;66.37;97522.47;4972076;28;20227;-57
2023/07/02 10:23:35;;;;;;;9.73;5.45;;;;;;;28.01;62.51;97537.53;4972091;28;20198;-57
2023/07/02 10:26:13;;;;;;;8.25;5.50;;;;;;;28.04;63.60;97505.94;4971947;28;20250;-56
2023/07/02 10:28:38;;;;;;;6.20;4.80;;;;;;;28.37;60.62;97540.69;4971965;28;20184;-57
2023/07/02 10:31:04;;;;;;;7.53;5.13;;;;;;;28.45;60.48;97540.28;4971921;28;20198;-58
2023/07/02 10:33:29;;;;;;;5.47;4.93;;;;;;;28.59;58.84;97540.81;4971849;28;20235;-57
2023/07/02 10:35:55;;;;;;;6.93;5.50;;;;;;;28.80;61.44;97540.13;4971892;28;20200;-57
2023/07/02 10:38:22;;;;;;;8.90;6.15;;;;;;;28.95;60.99;97525.22;4971815;28;20187;-57
2023/07/02 10:40:57;;;;;;;7.13;6.20;;;;;;;28.81;58.22;97523.88;4972207;28;20216;-57
2023/07/02 10:43:30;;;;;;;9.27;5.88;;;;;;;28.94;59.36;97517.44;5011222;28;20255;-57
2023/07/02 10:45:56;;;;;;;7.88;5.05;;;;;;;28.88;59.09;97521.88;5032852;28;20185;-57
2023/07/02 10:48:21;;;;;;;7.07;5.95;;;;;;;28.64;58.54;97525.75;5031932;28;20225;-57
2023/07/02 10:50:48;;;;;;;5.93;5.32;;;;;;;28.39;56.71;97530.59;5032727;28;20668;-57
2023/07/02 10:53:17;;;;;;;6.82;4.88;;;;;;;28.09;56.18;97511.38;5032734;28;20178;-57
2023/07/02 10:55:43;;;;;;;6.10;4.97;;;;;;;28.04;59.56;97502.50;5031894;28;20174;-57
2023/07/02 10:58:10;;;;;;;11.35;8.77;;;;;;;28.13;60.62;97517.84;5032549;28;20210;-57
2023/07/02 11:00:49;;;;;;;7.60;5.78;;;;;;;28.29;61.96;97517.06;5032270;28;20550;-57
2023/07/02 11:03:18;;;;;;;6.32;5.22;;;;;;;28.36;62.32;97525.72;5049959;28;20185;-56
2023/07/02 11:05:43;;;;;;;7.03;6.03;;;;;;;28.21;68.77;97527.31;5049925;28;20283;-56
2023/07/02 11:08:09;;;;;;;8.65;6.70;;;;;;;28.20;69.06;97550.44;5049988;28;20220;-56
2023/07/02 11:10:35;;;;;;;6.88;5.03;;;;;;;28.10;67.10;97538.78;5049984;28;20659;-57
2023/07/02 11:13:10;;;;;;;7.80;5.35;;;;;;;27.94;70.08;97550.97;5049932;28;20193;-57
2023/07/02 11:15:37;;;;;;;7.60;5.25;;;;;;;27.75;73.44;97533.50;5050088;28;20160;-57
2023/07/02 11:18:20;;;;;;;7.50;5.68;;;;;;;27.48;75.75;97510.34;5049821;28;20288;-57
2023/07/02 11:20:46;;;;;;;7.20;5.75;;;;;;;27.82;76.37;97536.88;5049871;28;20200;-58